• Join FlightAware (Why Join?)
  • Login
  • US Flag 
07:32PM EDT


 

Airport Tracker/Info


-or-


 

Live Flight TrackerFlight Track Log ✈ N400DR ✈ 17-Sep-2013 ✈ KCAK - KLOT

Flight Track Log - Related Links

Times and Time Zones

All times are in EDT time to prevent confusion due to time zone crossing. See the N400DR flight status page for this flight to view local times or setup timezone preferences in your user account.

Time Position Orientation Groundspeed Altitude Reporting Facility
EDT Latitude Longitude Course Direction KTS MPH feet Rate Location/Type
07:29AM 40.9475 -81.5103 261° West 148 170 3,600  Level Cleveland Center
07:30AM 40.9250 -81.5533 235° Southwest 143 165 4,700 1,020 Climbing Cleveland Center
07:31AM 40.9058 -81.5989 241° Southwest 163 188 5,700 960 Climbing Cleveland Center
07:32AM 40.9044 -81.6519 268° West 150 173 6,700 960 Climbing Cleveland Center
07:33AM 40.9642 -81.8140 268° West  Level Estimated
07:33AM 40.9014 -81.7044 266° West 143 165 7,700  Level Cleveland Center
07:34AM 40.9565 -81.8759 261° West  Level FlightAware Approximate
07:34AM 40.8992 -81.7639 267° West 156 180 8,000  Level Cleveland Center
07:35AM 40.8975 -81.8311 268° West 177 204 8,000  Level Cleveland Center
07:36AM 40.8944 -81.9094 267° West 180 207 8,000  Level Cleveland Center
07:37AM 40.8922 -81.9767 268° West 180 207 8,000  Level Cleveland Center
07:38AM 40.8886 -82.0414 266° West 177 204 8,000  Level Cleveland Center
07:39AM 40.8867 -82.1075 268° West 178 205 8,100  Climbing Cleveland Center
07:40AM 40.8839 -82.1725 267° West 177 204 8,100  Level Cleveland Center
07:41AM 40.8819 -82.2372 268° West 174 200 8,100  Level Cleveland Center
07:42AM 40.8792 -82.3031 267° West 177 204 8,100  Level Cleveland Center
07:43AM 40.8753 -82.3681 265° West 176 203 8,100  Level Cleveland Center
07:44AM 40.8736 -82.4333 268° West 177 204 8,100  Level Cleveland Center
07:45AM 40.8711 -82.4992 267° West 177 204 8,100  Level Cleveland Center
07:46AM 40.8681 -82.5636 266° West 174 200 8,100  Level Cleveland Center
07:47AM 40.8708 -82.6397 273° West 175 201 8,100  Level Cleveland Center
07:48AM 40.8761 -82.7036 276° West 175 201 8,100  Level Cleveland Center
07:49AM 40.8819 -82.7675 277° West 175 201 8,100 -60 Level Cleveland Center
07:50AM 40.8864 -82.8317 275° West 174 200 8,000 -60 Descending Cleveland Center
07:51AM 40.8919 -82.8961 277° West 175 201 8,000  Level Cleveland Center
07:52AM 40.8967 -82.9600 276° West 174 200 8,000  Level Cleveland Center
07:53AM 40.9017 -83.0236 276° West 173 199 8,000  Level Cleveland Center
07:54AM 40.9056 -83.0878 275° West 174 200 8,000  Level Cleveland Center
07:55AM 40.9117 -83.1531 277° West 177 204 8,000  Level Cleveland Center
07:56AM 40.9175 -83.2275 276° West 174 200 8,000  Level Cleveland Center
07:57AM 40.9222 -83.2908 276° West 173 199 8,000  Level Cleveland Center
07:58AM 40.9261 -83.3553 275° West 174 200 8,000  Level Cleveland Center
07:59AM 40.9303 -83.4192 275° West 172 198 8,000  Level Cleveland Center
08:01AM 40.9356 -83.4842 276° West 176 203 8,000  Level Cleveland Center
08:02AM 40.9397 -83.5489 275° West 176 203 8,000  Level Cleveland Center
08:03AM 40.9439 -83.6122 275° West 172 198 8,000  Level Cleveland Center
08:04AM 40.9489 -83.6767 276° West 175 201 8,000  Level Cleveland Center
08:05AM 40.9539 -83.7506 275° West 172 198 8,000  Level Cleveland Center
08:06AM 40.9561 -83.8150 273° West 172 198 8,000  Level Cleveland Center
08:07AM 40.9575 -83.8722 272° West 172 198 8,000  Level Cleveland Center
08:08AM 40.9597 -83.9375 273° West 176 203 8,000  Level Cleveland Center
08:09AM 40.9611 -84.0139 271° West 174 200 8,000  Level Cleveland Center
08:10AM 40.9614 -84.0767 270° West 172 198 8,000  Level Cleveland Center
08:11AM 40.9625 -84.1400 271° West 173 199 8,000  Level Cleveland Center
08:12AM 40.9642 -84.2022 272° West 169 194 8,000  Level Cleveland Center
08:13AM 40.9658 -84.2658 272° West 173 199 8,000  Level Cleveland Center
08:14AM 40.9672 -84.3278 272° West 171 197 8,000  Level Cleveland Center
08:15AM 40.9681 -84.4175 271° West 173 199 8,000  Level Chicago Center
08:16AM 40.9689 -84.4806 271° West 173 199 8,000  Level Chicago Center
08:17AM 40.9697 -84.5439 271° West 172 198 8,000  Level Chicago Center
08:18AM 40.9703 -84.6211 271° West 176 203 8,000  Level Chicago Center
08:19AM 40.9728 -84.6847 273° West 174 200 8,000  Level Chicago Center
08:20AM 40.9736 -84.7489 271° West 174 200 8,000  Level Chicago Center
08:21AM 40.9744 -84.8125 271° West 174 200 8,000  Level Chicago Center
08:23AM 40.9747 -84.8744 270° West 171 197 8,000  Level Chicago Center
08:24AM 40.9764 -84.9392 272° West 173 199 8,000  Level Chicago Center
08:25AM 40.9758 -85.0036 269° West 175 201 8,000  Level Chicago Center
08:26AM 40.9775 -85.0806 272° West 174 200 8,000  Level Chicago Center
08:27AM 40.9781 -85.1469 271° West 178 205 8,000  Level Chicago Center
08:28AM 40.9803 -85.2108 273° West 176 203 8,000  Level Chicago Center
08:29AM 40.9892 -85.2744 281° West 176 203 8,000  Level Chicago Center
08:30AM 40.9967 -85.3375 279° West 175 201 8,000  Level Chicago Center
08:31AM 41.0039 -85.4011 279° West 175 201 8,000  Level Chicago Center
08:32AM 41.0139 -85.4769 280° West 174 200 8,000  Level Chicago Center
08:33AM 41.0217 -85.5406 279° West 175 201 8,000  Level Chicago Center
08:34AM 41.0297 -85.6050 279° West 176 203 8,000  Level Chicago Center
08:35AM 41.0369 -85.6678 279° West 174 200 8,000  Level Chicago Center
08:36AM 41.0444 -85.7322 279° West 176 203 8,000  Level Chicago Center
08:37AM 41.0514 -85.7956 278° West 175 201 8,000  Level Chicago Center
08:38AM 41.0608 -85.8714 279° West 173 199 8,000  Level Chicago Center
08:39AM 41.0686 -85.9347 279° West 174 200 8,000  Level Chicago Center
08:40AM 41.0758 -85.9975 279° West 172 198 8,000  Level Chicago Center
08:41AM 41.0831 -86.0614 279° West 175 201 8,000  Level Chicago Center
08:42AM 41.0906 -86.1247 279° West 174 200 8,000  Level Chicago Center
08:43AM 41.0978 -86.1878 279° West 174 200 8,000  Level Chicago Center
08:44AM 41.1064 -86.2647 278° West 176 203 8,000  Level Chicago Center
08:45AM 41.1131 -86.3269 278° West 173 199 8,000  Level Chicago Center
08:46AM 41.1208 -86.3914 279° West 175 201 8,000  Level Chicago Center
08:47AM 41.1281 -86.4553 279° West 176 203 8,000  Level Chicago Center
08:48AM 41.1339 -86.5183 277° West 174 200 8,000  Level Chicago Center
08:49AM 41.1419 -86.5822 280° West 177 204 8,000  Level Chicago Center
08:50AM 41.1506 -86.6578 279° West 174 200 8,000  Level Chicago Center
08:51AM 41.1572 -86.7214 278° West 174 200 8,000  Level Chicago Center
08:52AM 41.1653 -86.7844 280° West 172 198 8,000  Level Chicago Center
08:54AM 41.1731 -86.8481 279° West 175 201 8,000  Level Chicago Center
08:55AM 41.1797 -86.9117 278° West 175 201 8,000  Level Chicago Center
08:56AM 41.1850 -86.9764 276° West 177 204 8,000  Level Chicago Center
08:57AM 41.1942 -87.0525 279° West 176 203 8,000  Level Chicago Center
08:58AM 41.2000 -87.1172 277° West 175 201 8,000  Level Chicago Center
08:59AM 41.2061 -87.1817 277° West 174 200 8,000 -60 Level Chicago Center
09:00AM 41.2139 -87.2450 279° West 174 200 7,900 -420 Descending Chicago Center
09:01AM 41.2214 -87.3147 278° West 188 216 7,200 -720 Descending Chicago Center
09:02AM 41.2292 -87.3897 278° West 198 228 6,500 -780 Descending Chicago Center
09:03AM 41.2381 -87.4767 278° West 198 228 5,700 -780 Descending Chicago Center
09:04AM 41.2461 -87.5489 278° West 199 229 4,900 -780 Descending Chicago Center
09:05AM 41.2536 -87.6222 278° West 200 230 4,100 -480 Descending Chicago Center
09:06AM 41.2606 -87.6894 278° West 194 223 4,000 -60 Descending Chicago Center
09:07AM 41.2661 -87.7492 277° West 180 207 4,000  Level Chicago Center
09:08AM 41.3044 -87.7850 325° Northwest 176 203 4,000  Level Chicago Center
09:09AM 41.3489 -87.8292 323° Northwest 169 194 4,000  Level Chicago Center
09:10AM 41.3850 -87.8667 322° Northwest 168 193 4,000  Level Chicago Center
09:11AM 41.4192 -87.9036 321° Northwest 163 188 4,000 -60 Level Chicago Center
09:12AM 41.4517 -87.9386 321° Northwest 158 182 3,900 -540 Descending Chicago Center
09:13AM 41.4961 -87.9878 320° Northwest 170 196 3,000 -600 Descending Chicago Center
09:14AM 41.5333 -88.0286 321° Northwest 175 201 2,700 -540 Descending Chicago Center
09:15AM 41.5681 -88.0731 316° Northwest 175 201 2,000 -540 Descending Chicago Center
09:16AM 41.6083 -88.0764 356° North 157 181 1,600 -480 Descending Chicago Center
09:17AM 41.6300 -88.0886 337° Northwest 133 153 1,100 -480 Descending Chicago Center
09:18AM 41.6053 -88.0972 195° South 112 129 700 -420 Descending Chicago Center